Latest Coastal Weather Observations for Ballina

IDN60701

Issued at 6:31 pm EST Sunday 24 September 2017 (issued every 10 minutes, with the page automatically refreshed every 10 minutes)

About coastal observations | Map of coastal stations | Coastal observations for NSW | Marine services | Other Formats
Station Details ID: 058198 Name: BALLINA AIRPORT AWS Lat: -28.84 Lon: 153.56 Height: 1.3 m
Data from the previous 72 hours. | See also: Recent months at Ballina
Date/Time
EST
Temp
°C
Wind Pressure Rain since
9am
mm
Weather Cloud Vis
km
Sea
Height
m
Swell
Dir  Spd
kts
Gust
kts
hPa Trend Height
m
Period
s
Dir
24/06:30pm 22.2 N 17 23 1007.3 - 0.0 - Clear 10 - - - -
24/06:00pm 22.8 N 16 24 1007.1 - 0.0 - - 10 - - - -
24/05:30pm 23.4 N 16 24 1006.7 - 0.0 - - 10 - - - -
24/05:00pm 24.0 N 15 26 1006.3 - 0.0 - - 10 - - - -
24/04:52pm 24.3 N 15 26 1006.2 - 0.0 - - 10 - - - -
24/04:30pm 25.2 NNE 13 18 1006.3 - 0.0 - - 10 - - - -
24/04:00pm 25.8 NNE 16 24 1006.1 - 0.0 - - 10 - - - -
24/03:41pm 25.9 NNE 15 25 1006.1 - 0.0 - - 10 - - - -
24/03:30pm 26.1 NNE 15 22 1006.1 - 0.0 - - 10 - - - -
24/03:00pm 26.6 N 17 22 1006.1 - 0.0 - - 10 - - - -
24/02:35pm 26.8 N 15 25 1006.2 - 0.0 - - 10 - - - -
24/02:30pm 27.6 N 14 22 1006.4 - 0.0 - - 10 - - - -
24/02:00pm 27.1 NNE 17 23 1006.8 - 0.0 - - 10 - - - -
24/01:30pm 27.2 N 18 25 1007.0 - 0.0 - - 10 - - - -
24/01:00pm 27.8 NNE 18 22 1007.5 - 0.0 - - 10 - - - -
24/12:30pm 28.1 N 16 22 1007.9 - 0.0 - - 10 - - - -
24/12:00pm 28.4 NNE 14 19 1008.2 - 0.0 - - 10 - - - -
24/11:30am 27.6 NNE 14 21 1008.7 - 0.0 - - 10 - - - -
24/11:00am 27.4 NNE 14 20 1009.4 - 0.0 - - 10 - - - -
24/10:30am 27.4 NNE 13 19 1009.9 - 0.0 - - 10 - - - -
24/10:00am 27.8 NNE 11 15 1010.4 - 0.0 - - 10 - - - -
24/09:30am 26.5 N 10 14 1010.9 - 0.0 - - 10 - - - -
24/09:00am 25.9 NNE 9 13 1011.1 - 0.0 - - 10 - - - -
24/08:30am 24.2 NNE 6 8 1011.3 - 0.0 - - 10 - - - -
24/08:00am 23.4 N 8 10 1010.8 - 0.0 - - 10 - - - -
24/07:30am 21.5 N 8 11 1010.8 - 0.0 - - 10 - - - -
24/07:00am 20.2 NNE 5 7 1010.7 - 0.0 - - 10 - - - -
24/06:30am 18.9 N 5 7 1010.3 - 0.0 - - 10 - - - -
24/06:00am 18.2 NNE 5 8 1010.2 - 0.0 - - 10 - - - -
24/05:30am 18.0 N 5 7 1010.0 - 0.0 - - 10 - - - -
24/05:00am 18.5 N 9 11 1009.7 - 0.0 - - 10 - - - -
24/04:30am 17.8 N 5 6 1009.6 - 0.0 - - 10 - - - -
24/04:00am 18.4 N 5 7 1009.4 - 0.0 - - 10 - - - -
24/03:30am 19.0 N 9 11 1009.1 - 0.0 - - 10 - - - -
24/03:00am 18.7 NNE 8 10 1009.4 - 0.0 - Mostly cloudy 10 - - - -
24/02:30am 17.2 NNE 3 4 1009.8 - 0.0 - - 10 - - - -
24/02:00am 18.8 NNW 1 3 1010.0 - 0.0 - - 10 - - - -
24/01:30am 20.1 N 8 12 1010.0 - 0.0 - - 10 - - - -
24/01:00am 20.3 NNE 9 13 1010.1 - 0.0 - - 10 - - - -
24/12:30am 20.6 NNE 11 15 1010.2 - 0.0 - - 10 - - - -
24/12:00am 20.5 N 11 16 1010.5 - 0.0 - - 10 - - - -
 
Date/Time
EST
Temp
°C
Wind Pressure Rain since
9am
mm
Weather Cloud Vis
km
Sea
Height
m
Swell
Dir  Spd
kts
Gust
kts
hPa Trend Height
m
Period
s
Dir
23/11:30pm 20.8 N 12 17 1010.7 - 0.0 - - 10 - - - -
23/11:00pm 20.7 NNE 11 15 1010.9 - 0.0 - - 10 - - - -
23/10:30pm 21.0 NNE 11 16 1011.1 - 0.0 - - 10 - - - -
23/10:00pm 21.3 NNE 11 16 1011.4 - 0.0 - - 10 - - - -
23/09:30pm 21.3 N 12 16 1011.7 - 0.0 - - 10 - - - -
23/09:00pm 21.3 N 13 18 1011.8 - 0.0 - - 10 - - - -
23/08:30pm 21.2 N 11 17 1011.8 - 0.0 - - 10 - - - -
23/08:00pm 21.5 N 12 17 1011.5 - 0.0 - - 10 - - - -
23/07:30pm 21.5 N 12 17 1011.3 - 0.0 - - 10 - - - -
23/07:00pm 21.7 N 13 16 1011.0 - 0.0 - - 10 - - - -
23/06:30pm 22.0 N 12 17 1010.8 - 0.0 - - 10 - - - -
23/06:00pm 22.3 N 15 21 1010.4 - 0.0 - Partly cloudy 10 - - - -
23/05:30pm 22.5 N 14 20 1010.4 - 0.0 - - 10 - - - -
23/05:00pm 23.1 NNE 15 19 1010.2 - 0.0 - - 10 - - - -
23/04:30pm 24.0 N 15 21 1010.0 - 0.0 - - 10 - - - -
23/04:00pm 24.7 N 14 21 1010.1 - 0.0 - - 10 - - - -
23/03:30pm 24.6 NNE 14 19 1010.1 - 0.0 - - 10 - - - -
23/03:00pm 26.4 N 15 20 1010.2 - 0.0 - - 10 - - - -
23/02:30pm 26.7 N 13 18 1010.3 - 0.0 - - 10 - - - -
23/02:00pm 27.2 NNE 14 19 1010.6 - 0.0 - - 10 - - - -
23/01:30pm 28.0 NNE 13 17 1010.9 - 0.0 - - 10 - - - -
23/01:00pm 28.7 NNE 10 15 1011.3 - 0.0 - - 10 - - - -
23/12:30pm 28.1 NE 12 16 1011.6 - 0.0 - - 10 - - - -
23/12:00pm 27.8 NE 12 15 1012.1 - 0.0 - - 10 - - - -
23/11:30am 27.8 NE 12 15 1012.6 - 0.0 - - 10 - - - -
23/11:00am 27.1 NE 11 13 1013.2 - 0.0 - - 10 - - - -
23/10:30am 27.1 NE 7 10 1013.7 - 0.0 - - 10 - - - -
23/10:00am 27.3 ENE 6 8 1014.1 - 0.0 - - 10 - - - -
23/09:30am 26.0 NE 6 8 1014.5 - 0.0 - - 10 - - - -
23/09:00am 24.4 NE 7 9 1014.8 - 7.0 - - 10 - - - -
23/08:30am 24.2 ENE 4 7 1015.1 - 7.0 - - 10 - - - -
23/08:00am 22.3 CALM 0 3 1015.2 - 7.0 - - 10 - - - -
23/07:30am 19.2 CALM 0 0 1015.0 - 7.0 - - 10 - - - -
23/07:00am 16.5 CALM 0 2 1014.8 - 7.0 - - 10 - - - -
23/06:30am 14.3 NE 1 3 1014.6 - 7.0 - - 10 - - - -
23/06:00am 11.9 CALM 0 1 1014.4 - 7.0 - - 10 - - - -
23/05:50am 12.3 WNW 1 3 1014.4 - 7.0 - - 10 - - - -
23/05:31am 12.4 CALM 0 0 1014.3 - 7.0 - - 5 - - - -
23/05:30am 12.6 CALM 0 0 1014.3 - 7.0 - - 8 - - - -
23/05:19am 12.8 CALM 0 0 1014.2 - 7.0 - - 10 - - - -
23/05:00am 12.7 CALM 0 0 1014.2 - 7.0 - - 0.5 - - - -
23/04:30am 13.3 CALM 0 0 1014.0 - 7.0 - - 2 - - - -
23/04:24am 13.6 CALM 0 0 1013.9 - 7.0 - - 4 - - - -
23/04:00am 14.2 CALM 0 0 1013.8 - 7.0 - - 10 - - - -
23/03:30am 14.3 CALM 0 0 1013.8 - 7.0 - - 10 - - - -
23/03:00am 14.7 CALM 0 0 1013.8 - 7.0 - - 10 - - - -
23/02:30am 14.2 CALM 0 0 1014.1 - 7.0 - - 10 - - - -
23/02:00am 15.2 CALM 0 0 1014.1 - 7.0 - - 10 - - - -
23/01:30am 16.2 CALM 0 0 1014.2 - 7.0 - - 10 - - - -
23/01:00am 17.7 WSW 3 5 1014.4 - 7.0 - - 10 - - - -
23/12:30am 19.6 S 5 7 1014.5 - 7.0 - - 10 - - - -
23/12:00am 22.6 NNW 7 9 1014.2 - 7.0 - Mostly clear 10 - - - -
 
Date/Time
EST
Temp
°C
Wind Pressure Rain since
9am
mm
Weather Cloud Vis
km
Sea
Height
m
Swell
Dir  Spd
kts
Gust
kts
hPa Trend Height
m
Period
s
Dir
22/11:30pm 23.1 N 9 12 1014.2 - 7.0 - Partly cloudy 10 - - - -
22/11:00pm 22.1 N 11 14 1014.2 - 7.0 - Partly cloudy 10 - - - -
22/10:30pm 21.7 N 9 12 1014.2 - 7.0 - - 10 - - - -
22/10:00pm 21.5 NNW 11 14 1014.1 - 7.0 - - 10 - - - -
22/09:30pm 22.0 N 14 20 1014.0 - 7.0 - - 10 - - - -
22/09:00pm 20.9 N 10 13 1013.7 - 7.0 - - 10 - - - -
22/08:30pm 20.6 NNW 6 10 1013.7 - 7.0 - - 10 - - - -
22/08:00pm 20.5 SSE 6 12 1013.0 - 7.0 - Partly cloudy 10 - - - -
22/07:37pm 20.6 NNE 18 37 1012.1 - 7.0 - Partly cloudy 10 - - - -
22/07:30pm 20.6 NNE 13 19 1013.3 - 7.0 - Partly cloudy 10 - - - -
22/07:21pm 20.7 N 12 16 1013.7 - 7.0 - Partly cloudy 10 - - - -
22/07:00pm 21.4 NW 13 25 1014.0 - 5.4 - Partly cloudy 2 - - - -
22/06:58pm 22.1 NW 12 25 1014.4 - 4.4 - Partly cloudy 2 - - - -
22/06:53pm 20.7 NW 10 15 1015.1 - 1.2 - Partly cloudy 5 - - - -
22/06:30pm 22.1 N 11 16 1013.6 - 0.0 - Partly cloudy 10 - - - -
22/06:00pm 21.9 NNE 13 19 1013.2 - 0.0 - Partly cloudy 10 - - - -
22/05:30pm 22.2 NNE 14 23 1013.2 - 0.0 - - 10 - - - -
22/05:00pm 23.0 NNE 15 25 1012.9 - 0.0 - - 10 - - - -
22/04:48pm 23.3 NNE 17 27 1012.8 - 0.0 - - 10 - - - -
22/04:30pm 23.7 NNE 16 22 1012.7 - 0.0 - - 10 - - - -
22/04:00pm 24.1 NNE 17 24 1012.5 - 0.0 - - 10 - - - -
22/03:30pm 24.5 N 17 23 1012.6 - 0.0 - - 10 - - - -
22/03:00pm 25.4 N 16 22 1012.5 - 0.0 - - 10 - - - -
22/02:30pm 25.6 NNE 18 24 1012.8 - 0.0 - - 10 - - - -
22/02:00pm 26.4 NNE 16 21 1013.2 - 0.0 - - 10 - - - -
22/01:30pm 26.2 NNE 16 22 1013.5 - 0.0 - - 10 - - - -
22/01:00pm 26.4 NNE 15 22 1013.8 - 0.0 - - 10 - - - -
22/12:30pm 26.8 NNE 13 18 1014.1 - 0.0 - - 10 - - - -
22/12:00pm 27.2 NNE 13 20 1014.6 - 0.0 - - 10 - - - -
22/11:30am 26.5 NE 15 20 1015.3 - 0.0 - - 10 - - - -
22/11:00am 26.6 NNE 12 17 1015.9 - 0.0 - - 10 - - - -
22/10:30am 26.7 NNE 12 17 1016.2 - 0.0 - - 10 - - - -
22/10:00am 26.1 N 10 14 1016.7 - 0.0 - - 10 - - - -
22/09:30am 25.7 N 10 15 1017.1 - 0.0 - - 10 - - - -
22/09:00am 24.8 N 9 13 1017.5 - 0.0 - - 10 - - - -
22/08:30am 23.5 N 7 12 1017.6 - 0.0 - - 10 - - - -
22/08:00am 22.2 N 6 8 1017.7 - 0.0 - - 10 - - - -
22/07:30am 20.8 N 5 7 1017.8 - 0.0 - - 10 - - - -
22/07:00am 18.3 CALM 0 0 1017.5 - 0.0 - - 10 - - - -
22/06:30am 15.9 CALM 0 0 1017.4 - 0.0 - - 10 - - - -
22/06:00am 15.6 CALM 0 3 1017.1 - 0.0 - - 7 - - - -
22/05:36am 15.4 NNW 1 3 1017.0 - 0.0 - - 7 - - - -
22/05:30am 14.9 NNW 3 3 1016.9 - 0.0 - - 6 - - - -
22/05:00am 15.4 N 2 3 1016.8 - 0.0 - - 6 - - - -
22/04:52am 15.9 N 3 4 1016.7 - 0.0 - - 5 - - - -
22/04:30am 16.1 WNW 3 4 1016.5 - 0.0 - - 10 - - - -
22/04:00am 18.1 N 5 7 1016.3 - 0.0 - - 10 - - - -
22/03:30am 18.6 NNE 7 11 1016.1 - 0.0 - - 10 - - - -
22/03:00am 18.6 NNE 8 10 1016.2 - 0.0 - - 10 - - - -
22/02:30am 18.9 N 8 10 1016.2 - 0.0 - - 10 - - - -
22/02:00am 19.0 N 9 12 1016.4 - 0.0 - - 10 - - - -
22/01:30am 19.0 N 9 13 1016.5 - 0.0 - - 10 - - - -
22/01:00am 18.9 NNE 8 12 1016.6 - 0.0 - - 10 - - - -
22/12:30am 18.9 N 8 11 1017.1 - 0.0 - - 10 - - - -
22/12:00am 18.9 N 8 13 1017.4 - 0.0 - - 10 - - - -
 
Date/Time
EST
Temp
°C
Wind Pressure Rain since
9am
mm
Weather Cloud Vis
km
Sea
Height
m
Swell
Dir  Spd
kts
Gust
kts
hPa Trend Height
m
Period
s
Dir
21/11:30pm 19.2 N 9 13 1017.5 - 0.0 - - 10 - - - -
21/11:00pm 18.9 N 9 13 1017.4 - 0.0 - - 10 - - - -
21/10:30pm 19.4 N 11 15 1017.2 - 0.0 - - 10 - - - -
21/10:00pm 19.5 N 10 15 1017.3 - 0.0 - - 10 - - - -
21/09:30pm 19.6 N 10 17 1017.3 - 0.0 - - 10 - - - -
21/09:00pm 19.6 N 9 13 1017.2 - 0.0 - - 10 - - - -
21/08:30pm 19.6 N 10 16 1017.0 - 0.0 - - 10 - - - -
21/08:00pm 19.7 N 11 16 1016.8 - 0.0 - - 10 - - - -
21/07:30pm 19.7 N 12 18 1016.5 - 0.0 - - 10 - - - -
21/07:00pm 19.6 N 12 16 1016.4 - 0.0 - - 10 - - - -

Other Formats:

Comma delimited format used in spreadsheet applications
http://www.bom.gov.au/fwo/IDN60701/IDN60701.94596.axf

JavaScript Object Notation format (JSON) in row-major order
http://www.bom.gov.au/fwo/IDN60701/IDN60701.94596.json